sensor_id;sensor_type;location;lat;lon;timestamp;pressure;altitude;pressure_sealevel;temperature;humidity
81990;BME280;71485;51.638;-0.182;2023-11-22T00:00:35;101967.76;;;19.34;37.38
81990;BME280;71485;51.638;-0.182;2023-11-22T00:03:02;101974.54;;;19.64;37.27
81990;BME280;71485;51.638;-0.182;2023-11-22T00:05:26;101978.78;;;19.42;37.25
81990;BME280;71485;51.638;-0.182;2023-11-22T00:07:52;101985.11;;;19.60;37.32
81990;BME280;71485;51.638;-0.182;2023-11-22T00:10:19;101989.01;;;19.37;37.27
81990;BME280;71485;51.638;-0.182;2023-11-22T00:12:44;101992.12;;;19.31;37.34
81990;BME280;71485;51.638;-0.182;2023-11-22T00:15:09;101992.39;;;19.31;37.32
81990;BME280;71485;51.638;-0.182;2023-11-22T00:17:35;101991.06;;;19.33;37.27
81990;BME280;71485;51.638;-0.182;2023-11-22T00:20:00;101988.22;;;19.77;37.33
81990;BME280;71485;51.638;-0.182;2023-11-22T00:22:26;101986.36;;;19.82;37.19
81990;BME280;71485;51.638;-0.182;2023-11-22T00:24:51;101985.83;;;19.64;37.12
81990;BME280;71485;51.638;-0.182;2023-11-22T00:27:18;101982.71;;;19.62;37.12
81990;BME280;71485;51.638;-0.182;2023-11-22T00:29:44;101984.25;;;19.37;37.12
81990;BME280;71485;51.638;-0.182;2023-11-22T00:32:08;101988.24;;;19.40;37.05
81990;BME280;71485;51.638;-0.182;2023-11-22T00:34:35;101993.30;;;19.38;37.03
81990;BME280;71485;51.638;-0.182;2023-11-22T00:36:59;101994.46;;;19.57;37.09
81990;BME280;71485;51.638;-0.182;2023-11-22T00:39:26;101997.26;;;19.84;37.02
81990;BME280;71485;51.638;-0.182;2023-11-22T00:41:51;101990.11;;;19.27;37.09
81990;BME280;71485;51.638;-0.182;2023-11-22T00:44:17;101981.39;;;19.51;37.09
81990;BME280;71485;51.638;-0.182;2023-11-22T00:46:42;101982.17;;;18.83;37.00
81990;BME280;71485;51.638;-0.182;2023-11-22T00:49:08;101980.40;;;19.78;37.02
81990;BME280;71485;51.638;-0.182;2023-11-22T00:51:35;101973.05;;;19.66;37.16
81990;BME280;71485;51.638;-0.182;2023-11-22T00:53:59;101969.02;;;19.17;37.15
81990;BME280;71485;51.638;-0.182;2023-11-22T00:56:24;101972.56;;;19.63;37.17
81990;BME280;71485;51.638;-0.182;2023-11-22T00:58:51;101978.24;;;19.53;37.30
81990;BME280;71485;51.638;-0.182;2023-11-22T01:01:15;101971.63;;;19.60;37.21
81990;BME280;71485;51.638;-0.182;2023-11-22T01:03:41;101971.38;;;19.55;37.26
81990;BME280;71485;51.638;-0.182;2023-11-22T01:06:07;101973.66;;;19.54;37.26
81990;BME280;71485;51.638;-0.182;2023-11-22T01:08:33;101974.59;;;19.54;37.26
81990;BME280;71485;51.638;-0.182;2023-11-22T01:10:58;101979.30;;;19.26;37.29
81990;BME280;71485;51.638;-0.182;2023-11-22T01:13:25;101983.69;;;19.49;37.29
81990;BME280;71485;51.638;-0.182;2023-11-22T01:15:49;101983.73;;;19.48;37.33
81990;BME280;71485;51.638;-0.182;2023-11-22T01:18:15;101980.95;;;19.47;37.30
81990;BME280;71485;51.638;-0.182;2023-11-22T01:20:41;101983.04;;;19.46;37.29
81990;BME280;71485;51.638;-0.182;2023-11-22T01:23:06;101982.69;;;19.46;37.25
81990;BME280;71485;51.638;-0.182;2023-11-22T01:25:33;101989.27;;;19.48;37.25
81990;BME280;71485;51.638;-0.182;2023-11-22T01:27:57;101984.36;;;19.22;37.23
81990;BME280;71485;51.638;-0.182;2023-11-22T01:30:23;101984.12;;;19.40;37.29
81990;BME280;71485;51.638;-0.182;2023-11-22T01:32:48;101985.70;;;19.38;37.35
81990;BME280;71485;51.638;-0.182;2023-11-22T01:35:14;101988.48;;;19.60;37.38
81990;BME280;71485;51.638;-0.182;2023-11-22T01:37:50;101991.59;;;19.40;37.30
81990;BME280;71485;51.638;-0.182;2023-11-22T01:40:08;101992.17;;;19.37;37.33
81990;BME280;71485;51.638;-0.182;2023-11-22T01:42:39;101988.62;;;19.42;37.26
81990;BME280;71485;51.638;-0.182;2023-11-22T01:44:56;101993.78;;;19.46;37.21
81990;BME280;71485;51.638;-0.182;2023-11-22T01:47:22;101990.78;;;19.45;37.27
81990;BME280;71485;51.638;-0.182;2023-11-22T01:49:49;101984.39;;;19.41;37.30
81990;BME280;71485;51.638;-0.182;2023-11-22T01:52:14;101986.88;;;19.42;37.27
81990;BME280;71485;51.638;-0.182;2023-11-22T01:54:39;101991.65;;;19.19;37.26
81990;BME280;71485;51.638;-0.182;2023-11-22T01:57:05;101987.98;;;19.43;37.23
81990;BME280;71485;51.638;-0.182;2023-11-22T01:59:30;101987.53;;;19.42;37.25
81990;BME280;71485;51.638;-0.182;2023-11-22T02:01:56;101984.91;;;19.41;37.25
81990;BME280;71485;51.638;-0.182;2023-11-22T02:04:21;101989.42;;;19.16;37.26
81990;BME280;71485;51.638;-0.182;2023-11-22T02:06:47;101992.50;;;19.37;37.28
81990;BME280;71485;51.638;-0.182;2023-11-22T02:09:14;101993.63;;;19.37;37.29
81990;BME280;71485;51.638;-0.182;2023-11-22T02:11:41;101995.05;;;19.24;38.27
81990;BME280;71485;51.638;-0.182;2023-11-22T02:14:04;101996.65;;;19.35;39.27
81990;BME280;71485;51.638;-0.182;2023-11-22T02:16:30;101992.98;;;19.49;39.21
81990;BME280;71485;51.638;-0.182;2023-11-22T02:18:55;101993.28;;;19.55;38.91
81990;BME280;71485;51.638;-0.182;2023-11-22T02:21:21;101997.64;;;19.64;38.84
81990;BME280;71485;51.638;-0.182;2023-11-22T02:23:47;102002.81;;;19.65;38.75
81990;BME280;71485;51.638;-0.182;2023-11-22T02:26:15;102007.25;;;19.56;38.56
81990;BME280;71485;51.638;-0.182;2023-11-22T02:28:38;102003.85;;;19.31;38.37
81990;BME280;71485;51.638;-0.182;2023-11-22T02:31:03;101999.19;;;19.58;38.23
81990;BME280;71485;51.638;-0.182;2023-11-22T02:33:29;101991.04;;;19.44;38.20
81990;BME280;71485;51.638;-0.182;2023-11-22T02:35:54;101981.27;;;19.77;38.04
81990;BME280;71485;51.638;-0.182;2023-11-22T02:38:21;101972.19;;;19.78;37.91
81990;BME280;71485;51.638;-0.182;2023-11-22T02:40:48;101972.96;;;19.61;37.82
81990;BME280;71485;51.638;-0.182;2023-11-22T02:43:12;101975.20;;;19.83;37.74
81990;BME280;71485;51.638;-0.182;2023-11-22T02:45:37;101974.95;;;19.64;37.70
81990;BME280;71485;51.638;-0.182;2023-11-22T02:48:04;101981.27;;;19.66;37.43
81990;BME280;71485;51.638;-0.182;2023-11-22T02:50:28;101979.03;;;19.45;37.61
81990;BME280;71485;51.638;-0.182;2023-11-22T02:52:55;101984.64;;;19.37;37.47
81990;BME280;71485;51.638;-0.182;2023-11-22T02:55:19;101981.47;;;19.78;37.29
81990;BME280;71485;51.638;-0.182;2023-11-22T02:57:45;101982.04;;;19.36;37.30
81990;BME280;71485;51.638;-0.182;2023-11-22T03:00:11;101987.49;;;19.56;37.16
81990;BME280;71485;51.638;-0.182;2023-11-22T03:02:36;101990.59;;;19.29;36.92
81990;BME280;71485;51.638;-0.182;2023-11-22T03:05:02;101992.54;;;19.44;36.77
81990;BME280;71485;51.638;-0.182;2023-11-22T03:07:29;101986.54;;;19.47;36.83
81990;BME280;71485;51.638;-0.182;2023-11-22T03:09:53;101982.77;;;19.58;36.63
81990;BME280;71485;51.638;-0.182;2023-11-22T03:12:19;101980.98;;;19.68;36.47
81990;BME280;71485;51.638;-0.182;2023-11-22T03:14:45;101976.11;;;19.70;36.35
81990;BME280;71485;51.638;-0.182;2023-11-22T03:17:09;101971.68;;;19.73;36.33
81990;BME280;71485;51.638;-0.182;2023-11-22T03:19:35;101977.77;;;19.27;36.16
81990;BME280;71485;51.638;-0.182;2023-11-22T03:22:01;101979.13;;;19.76;36.21
81990;BME280;71485;51.638;-0.182;2023-11-22T03:24:26;101983.66;;;19.78;36.13
81990;BME280;71485;51.638;-0.182;2023-11-22T03:26:53;101989.70;;;19.76;36.10
81990;BME280;71485;51.638;-0.182;2023-11-22T03:29:17;101998.32;;;20.04;35.91
81990;BME280;71485;51.638;-0.182;2023-11-22T03:31:43;102001.88;;;19.81;35.94
81990;BME280;71485;51.638;-0.182;2023-11-22T03:34:09;102004.76;;;19.79;35.79
81990;BME280;71485;51.638;-0.182;2023-11-22T03:36:34;102010.52;;;19.78;35.82
81990;BME280;71485;51.638;-0.182;2023-11-22T03:39:01;102019.72;;;19.76;35.73
81990;BME280;71485;51.638;-0.182;2023-11-22T03:41:26;102024.02;;;19.79;35.80
81990;BME280;71485;51.638;-0.182;2023-11-22T03:43:52;102029.56;;;19.72;35.70
81990;BME280;71485;51.638;-0.182;2023-11-22T03:46:18;102030.96;;;19.70;35.75
81990;BME280;71485;51.638;-0.182;2023-11-22T03:48:44;102027.06;;;19.65;35.82
81990;BME280;71485;51.638;-0.182;2023-11-22T03:51:08;102023.57;;;19.63;35.74
81990;BME280;71485;51.638;-0.182;2023-11-22T03:53:35;102023.00;;;19.62;35.76
81990;BME280;71485;51.638;-0.182;2023-11-22T03:55:59;102022.84;;;19.61;35.75
81990;BME280;71485;51.638;-0.182;2023-11-22T03:58:27;102018.19;;;19.60;35.76
81990;BME280;71485;51.638;-0.182;2023-11-22T04:00:51;102017.44;;;19.58;35.78
81990;BME280;71485;51.638;-0.182;2023-11-22T04:03:16;102019.43;;;19.55;35.82
81990;BME280;71485;51.638;-0.182;2023-11-22T04:05:42;102019.31;;;19.55;35.70
81990;BME280;71485;51.638;-0.182;2023-11-22T04:08:07;102014.65;;;19.52;35.78
81990;BME280;71485;51.638;-0.182;2023-11-22T04:10:38;102015.98;;;19.46;35.77
81990;BME280;71485;51.638;-0.182;2023-11-22T04:12:59;102022.63;;;19.48;35.79
81990;BME280;71485;51.638;-0.182;2023-11-22T04:15:24;102018.95;;;19.92;35.76
81990;BME280;71485;51.638;-0.182;2023-11-22T04:17:50;102017.76;;;19.49;35.78
81990;BME280;71485;51.638;-0.182;2023-11-22T04:20:15;102013.39;;;19.20;35.81
81990;BME280;71485;51.638;-0.182;2023-11-22T04:22:43;102023.31;;;19.46;35.81
81990;BME280;71485;51.638;-0.182;2023-11-22T04:25:08;102023.63;;;19.52;35.75
81990;BME280;71485;51.638;-0.182;2023-11-22T04:27:34;102024.97;;;19.81;35.73
81990;BME280;71485;51.638;-0.182;2023-11-22T04:29:58;102031.98;;;19.56;35.57
81990;BME280;71485;51.638;-0.182;2023-11-22T04:32:23;102037.09;;;19.63;35.58
81990;BME280;71485;51.638;-0.182;2023-11-22T04:34:49;102038.10;;;19.64;35.50
81990;BME280;71485;51.638;-0.182;2023-11-22T04:37:14;102038.84;;;19.63;35.42
81990;BME280;71485;51.638;-0.182;2023-11-22T04:39:42;102038.03;;;19.70;35.18
81990;BME280;71485;51.638;-0.182;2023-11-22T04:42:06;102031.37;;;19.60;35.30
81990;BME280;71485;51.638;-0.182;2023-11-22T04:44:33;102028.34;;;19.52;35.34
81990;BME280;71485;51.638;-0.182;2023-11-22T04:46:57;102024.57;;;19.39;35.57
81990;BME280;71485;51.638;-0.182;2023-11-22T04:49:24;102018.97;;;19.85;35.57
81990;BME280;71485;51.638;-0.182;2023-11-22T04:51:49;102017.21;;;19.76;35.66
81990;BME280;71485;51.638;-0.182;2023-11-22T04:54:14;102015.30;;;19.48;35.66
81990;BME280;71485;51.638;-0.182;2023-11-22T04:56:40;102009.91;;;19.17;35.73
81990;BME280;71485;51.638;-0.182;2023-11-22T04:59:05;102009.97;;;19.38;35.75
81990;BME280;71485;51.638;-0.182;2023-11-22T05:01:32;102010.39;;;19.37;35.74
81990;BME280;71485;51.638;-0.182;2023-11-22T05:03:56;102018.19;;;19.34;35.76
81990;BME280;71485;51.638;-0.182;2023-11-22T05:06:22;102029.55;;;19.57;35.87
81990;BME280;71485;51.638;-0.182;2023-11-22T05:08:48;102037.70;;;19.19;36.26
81990;BME280;71485;51.638;-0.182;2023-11-22T05:11:13;102040.98;;;19.27;36.33
81990;BME280;71485;51.638;-0.182;2023-11-22T05:13:40;102029.97;;;19.17;36.26
81990;BME280;71485;51.638;-0.182;2023-11-22T05:16:06;102028.78;;;19.74;36.31
81990;BME280;71485;51.638;-0.182;2023-11-22T05:18:30;102028.10;;;19.40;36.14
81990;BME280;71485;51.638;-0.182;2023-11-22T05:20:57;102023.10;;;19.47;36.13
81990;BME280;71485;51.638;-0.182;2023-11-22T05:23:21;102031.11;;;19.50;36.15
81990;BME280;71485;51.638;-0.182;2023-11-22T05:25:51;102039.79;;;19.53;36.18
81990;BME280;71485;51.638;-0.182;2023-11-22T05:28:12;102035.07;;;19.56;36.16
81990;BME280;71485;51.638;-0.182;2023-11-22T05:30:38;102024.02;;;19.62;36.11
81990;BME280;71485;51.638;-0.182;2023-11-22T05:33:04;102026.02;;;19.64;36.14
81990;BME280;71485;51.638;-0.182;2023-11-22T05:35:29;102027.68;;;19.69;36.09
81990;BME280;71485;51.638;-0.182;2023-11-22T05:37:56;102033.41;;;19.67;36.12
81990;BME280;71485;51.638;-0.182;2023-11-22T05:40:21;102027.65;;;19.66;36.17
81990;BME280;71485;51.638;-0.182;2023-11-22T05:42:47;102027.53;;;19.73;36.09
81990;BME280;71485;51.638;-0.182;2023-11-22T05:45:13;102021.37;;;19.72;36.15
81990;BME280;71485;51.638;-0.182;2023-11-22T05:47:37;102012.72;;;19.72;36.15
81990;BME280;71485;51.638;-0.182;2023-11-22T05:50:06;102009.88;;;19.73;36.17
81990;BME280;71485;51.638;-0.182;2023-11-22T05:52:29;102009.38;;;19.80;36.10
81990;BME280;71485;51.638;-0.182;2023-11-22T05:54:54;102013.44;;;19.77;36.17
81990;BME280;71485;51.638;-0.182;2023-11-22T05:57:20;102005.01;;;19.82;36.09
81990;BME280;71485;51.638;-0.182;2023-11-22T05:59:45;102001.27;;;19.84;36.10
81990;BME280;71485;51.638;-0.182;2023-11-22T06:02:13;101992.53;;;19.65;36.02
81990;BME280;71485;51.638;-0.182;2023-11-22T06:04:37;101990.28;;;19.61;36.10
81990;BME280;71485;51.638;-0.182;2023-11-22T06:07:02;101990.81;;;20.11;36.10
81990;BME280;71485;51.638;-0.182;2023-11-22T06:09:28;101994.09;;;19.93;36.01
81990;BME280;71485;51.638;-0.182;2023-11-22T06:11:54;101994.98;;;20.18;36.02
81990;BME280;71485;51.638;-0.182;2023-11-22T06:14:19;101999.98;;;19.90;36.05
81990;BME280;71485;51.638;-0.182;2023-11-22T06:16:45;102006.16;;;19.82;36.10
81990;BME280;71485;51.638;-0.182;2023-11-22T06:19:10;102009.02;;;19.74;36.12
81990;BME280;71485;51.638;-0.182;2023-11-22T06:21:36;102012.99;;;19.86;35.84
81990;BME280;71485;51.638;-0.182;2023-11-22T06:24:02;102014.17;;;19.70;35.99
81990;BME280;71485;51.638;-0.182;2023-11-22T06:26:28;102014.65;;;19.65;35.99
81990;BME280;71485;51.638;-0.182;2023-11-22T06:28:53;102016.99;;;20.11;35.95
81990;BME280;71485;51.638;-0.182;2023-11-22T06:31:19;102027.31;;;19.57;35.96
81990;BME280;71485;51.638;-0.182;2023-11-22T06:33:44;102034.93;;;19.51;36.04
81990;BME280;71485;51.638;-0.182;2023-11-22T06:36:10;102025.16;;;19.91;36.11
81990;BME280;71485;51.638;-0.182;2023-11-22T06:38:37;102021.69;;;19.41;36.10
81990;BME280;71485;51.638;-0.182;2023-11-22T06:41:01;102016.80;;;19.67;36.02
81990;BME280;71485;51.638;-0.182;2023-11-22T06:43:28;102014.54;;;19.62;36.07
81990;BME280;71485;51.638;-0.182;2023-11-22T06:45:52;102020.48;;;19.79;36.15
81990;BME280;71485;51.638;-0.182;2023-11-22T06:48:19;102019.65;;;19.76;36.14
81990;BME280;71485;51.638;-0.182;2023-11-22T06:50:43;102013.21;;;19.54;36.10
81990;BME280;71485;51.638;-0.182;2023-11-22T06:53:10;102010.82;;;19.71;36.14
81990;BME280;71485;51.638;-0.182;2023-11-22T06:55:35;102019.95;;;19.48;36.14
81990;BME280;71485;51.638;-0.182;2023-11-22T06:58:02;102019.47;;;19.18;36.19
81990;BME280;71485;51.638;-0.182;2023-11-22T07:00:26;102020.47;;;19.63;36.22
81990;BME280;71485;51.638;-0.182;2023-11-22T07:02:53;102023.01;;;19.60;36.23
81990;BME280;71485;51.638;-0.182;2023-11-22T07:05:17;102027.97;;;19.29;36.30
81990;BME280;71485;51.638;-0.182;2023-11-22T07:07:43;102026.81;;;19.57;36.21
81990;BME280;71485;51.638;-0.182;2023-11-22T07:10:09;102028.22;;;19.57;36.18
81990;BME280;71485;51.638;-0.182;2023-11-22T07:12:35;102024.93;;;19.33;36.17
81990;BME280;71485;51.638;-0.182;2023-11-22T07:15:00;102028.72;;;19.55;36.21
81990;BME280;71485;51.638;-0.182;2023-11-22T07:17:25;102027.74;;;19.55;36.24
81990;BME280;71485;51.638;-0.182;2023-11-22T07:19:51;102027.78;;;19.55;36.26
81990;BME280;71485;51.638;-0.182;2023-11-22T07:22:17;102031.18;;;19.29;36.33
81990;BME280;71485;51.638;-0.182;2023-11-22T07:24:42;102035.74;;;19.32;36.33
81990;BME280;71485;51.638;-0.182;2023-11-22T07:27:08;102041.96;;;19.32;36.33
81990;BME280;71485;51.638;-0.182;2023-11-22T07:29:33;102040.85;;;19.47;36.47
81990;BME280;71485;51.638;-0.182;2023-11-22T07:31:58;102047.08;;;19.24;36.45
81990;BME280;71485;51.638;-0.182;2023-11-22T07:34:23;102054.48;;;19.50;36.43
81990;BME280;71485;51.638;-0.182;2023-11-22T07:36:49;102050.41;;;19.50;36.41
81990;BME280;71485;51.638;-0.182;2023-11-22T07:39:15;102048.78;;;19.48;36.41
81990;BME280;71485;51.638;-0.182;2023-11-22T07:41:40;102051.66;;;19.23;36.42
81990;BME280;71485;51.638;-0.182;2023-11-22T07:44:07;102056.32;;;19.51;36.36
81990;BME280;71485;51.638;-0.182;2023-11-22T07:46:31;102054.73;;;19.46;36.42
81990;BME280;71485;51.638;-0.182;2023-11-22T07:48:57;102063.66;;;19.47;36.40
81990;BME280;71485;51.638;-0.182;2023-11-22T07:51:26;102066.54;;;19.45;36.41
81990;BME280;71485;51.638;-0.182;2023-11-22T07:53:47;102066.43;;;19.45;36.42
81990;BME280;71485;51.638;-0.182;2023-11-22T07:56:14;102068.50;;;19.43;36.42
81990;BME280;71485;51.638;-0.182;2023-11-22T07:58:38;102066.46;;;18.97;36.37
81990;BME280;71485;51.638;-0.182;2023-11-22T08:01:05;102061.49;;;19.44;36.38
81990;BME280;71485;51.638;-0.182;2023-11-22T08:03:30;102071.81;;;19.46;36.34
81990;BME280;71485;51.638;-0.182;2023-11-22T08:05:53;102081.82;;;19.41;36.38
81990;BME280;71485;51.638;-0.182;2023-11-22T08:08:19;102090.90;;;19.43;36.36
81990;BME280;71485;51.638;-0.182;2023-11-22T08:10:44;102097.09;;;19.40;36.39
81990;BME280;71485;51.638;-0.182;2023-11-22T08:13:11;102094.90;;;19.40;36.39
81990;BME280;71485;51.638;-0.182;2023-11-22T08:15:35;102077.82;;;19.14;36.40
81990;BME280;71485;51.638;-0.182;2023-11-22T08:18:00;102076.53;;;19.40;36.36
81990;BME280;71485;51.638;-0.182;2023-11-22T08:20:26;102087.25;;;19.40;36.36
81990;BME280;71485;51.638;-0.182;2023-11-22T08:22:51;102093.97;;;19.37;36.43
81990;BME280;71485;51.638;-0.182;2023-11-22T08:25:17;102093.85;;;19.40;36.36
81990;BME280;71485;51.638;-0.182;2023-11-22T08:27:42;102085.72;;;19.37;36.39
81990;BME280;71485;51.638;-0.182;2023-11-22T08:30:08;102076.61;;;19.40;36.34
81990;BME280;71485;51.638;-0.182;2023-11-22T08:32:33;102073.04;;;19.17;36.35
81990;BME280;71485;51.638;-0.182;2023-11-22T08:34:59;102058.24;;;19.31;36.93
81990;BME280;71485;51.638;-0.182;2023-11-22T08:37:24;102046.11;;;19.50;37.77
81990;BME280;71485;51.638;-0.182;2023-11-22T08:39:51;102059.57;;;19.08;37.98
81990;BME280;71485;51.638;-0.182;2023-11-22T08:42:15;102070.17;;;19.64;38.19
81990;BME280;71485;51.638;-0.182;2023-11-22T08:44:41;102083.18;;;19.23;38.44
81990;BME280;71485;51.638;-0.182;2023-11-22T08:47:06;102078.67;;;19.28;38.20
81990;BME280;71485;51.638;-0.182;2023-11-22T08:49:33;102066.26;;;19.79;38.28
81990;BME280;71485;51.638;-0.182;2023-11-22T08:51:57;102055.14;;;19.34;38.22
81990;BME280;71485;51.638;-0.182;2023-11-22T08:54:22;102055.10;;;19.38;38.03
81990;BME280;71485;51.638;-0.182;2023-11-22T08:56:47;102061.65;;;19.91;37.92
81990;BME280;71485;51.638;-0.182;2023-11-22T08:59:13;102058.43;;;19.42;37.90
81990;BME280;71485;51.638;-0.182;2023-11-22T09:01:39;102057.03;;;19.70;37.74
81990;BME280;71485;51.638;-0.182;2023-11-22T09:04:03;102054.09;;;19.47;37.66
81990;BME280;71485;51.638;-0.182;2023-11-22T09:06:28;102052.14;;;19.73;37.57
81990;BME280;71485;51.638;-0.182;2023-11-22T09:08:54;102044.75;;;19.71;37.56
81990;BME280;71485;51.638;-0.182;2023-11-22T09:11:20;102037.86;;;19.53;37.43
81990;BME280;71485;51.638;-0.182;2023-11-22T09:13:46;102051.96;;;19.64;37.25
81990;BME280;71485;51.638;-0.182;2023-11-22T09:16:12;102055.35;;;19.65;37.24
81990;BME280;71485;51.638;-0.182;2023-11-22T09:18:36;102044.91;;;19.72;37.76
81990;BME280;71485;51.638;-0.182;2023-11-22T09:21:01;102047.33;;;20.19;38.94
81990;BME280;71485;51.638;-0.182;2023-11-22T09:23:26;102052.20;;;19.81;39.43
81990;BME280;71485;51.638;-0.182;2023-11-22T09:25:53;102057.91;;;19.60;39.65
81990;BME280;71485;51.638;-0.182;2023-11-22T09:28:17;102056.47;;;19.94;40.05
81990;BME280;71485;51.638;-0.182;2023-11-22T09:30:43;102043.03;;;19.68;40.03
81990;BME280;71485;51.638;-0.182;2023-11-22T09:33:09;102038.34;;;19.86;39.47
81990;BME280;71485;51.638;-0.182;2023-11-22T09:35:34;102034.90;;;19.80;39.26
81990;BME280;71485;51.638;-0.182;2023-11-22T09:37:59;102029.48;;;19.75;38.99
81990;BME280;71485;51.638;-0.182;2023-11-22T09:40:25;102021.59;;;19.73;38.69
81990;BME280;71485;51.638;-0.182;2023-11-22T09:42:52;102024.75;;;19.71;38.47
81990;BME280;71485;51.638;-0.182;2023-11-22T09:45:15;102026.58;;;19.72;38.24
81990;BME280;71485;51.638;-0.182;2023-11-22T09:47:40;102022.70;;;19.67;38.09
81990;BME280;71485;51.638;-0.182;2023-11-22T09:50:08;102017.76;;;19.66;37.93
81990;BME280;71485;51.638;-0.182;2023-11-22T09:52:34;102017.74;;;19.65;37.77
81990;BME280;71485;51.638;-0.182;2023-11-22T09:54:58;102029.91;;;19.65;37.64
81990;BME280;71485;51.638;-0.182;2023-11-22T09:57:25;102037.66;;;19.64;37.55
81990;BME280;71485;51.638;-0.182;2023-11-22T09:59:50;102034.01;;;19.69;37.43
81990;BME280;71485;51.638;-0.182;2023-11-22T10:02:14;102033.59;;;19.71;37.33
81990;BME280;71485;51.638;-0.182;2023-11-22T10:04:39;102035.88;;;19.48;37.23
81990;BME280;71485;51.638;-0.182;2023-11-22T10:07:04;102036.25;;;19.72;37.13
81990;BME280;71485;51.638;-0.182;2023-11-22T10:09:30;102032.35;;;19.69;37.11
81990;BME280;71485;51.638;-0.182;2023-11-22T10:11:58;102027.96;;;19.68;37.03
81990;BME280;71485;51.638;-0.182;2023-11-22T10:14:22;102027.63;;;19.89;37.00
81990;BME280;71485;51.638;-0.182;2023-11-22T10:16:59;102022.33;;;19.64;36.95
81990;BME280;71485;51.638;-0.182;2023-11-22T10:19:12;102013.56;;;19.65;36.91
81990;BME280;71485;51.638;-0.182;2023-11-22T10:21:38;102014.66;;;19.39;36.85
81990;BME280;71485;51.638;-0.182;2023-11-22T10:24:04;102015.93;;;19.41;36.76
81990;BME280;71485;51.638;-0.182;2023-11-22T10:26:30;102006.98;;;19.67;36.69
81990;BME280;71485;51.638;-0.182;2023-11-22T10:28:55;101993.27;;;19.65;36.66
81990;BME280;71485;51.638;-0.182;2023-11-22T10:31:21;101993.59;;;19.64;36.60
81990;BME280;71485;51.638;-0.182;2023-11-22T10:33:47;101994.64;;;19.63;36.56
81990;BME280;71485;51.638;-0.182;2023-11-22T10:36:11;101992.94;;;19.62;36.54
81990;BME280;71485;51.638;-0.182;2023-11-22T10:38:38;101984.31;;;19.63;36.48
81990;BME280;71485;51.638;-0.182;2023-11-22T10:41:04;101981.74;;;19.44;36.44
81990;BME280;71485;51.638;-0.182;2023-11-22T10:43:30;101972.40;;;19.71;36.35
81990;BME280;71485;51.638;-0.182;2023-11-22T10:45:55;101963.61;;;19.44;36.30
81990;BME280;71485;51.638;-0.182;2023-11-22T10:48:20;101972.65;;;19.62;36.29
81990;BME280;71485;51.638;-0.182;2023-11-22T10:50:46;101980.92;;;19.64;36.27
81990;BME280;71485;51.638;-0.182;2023-11-22T10:53:15;101984.74;;;19.68;36.20
81990;BME280;71485;51.638;-0.182;2023-11-22T10:55:41;101976.17;;;19.41;36.19
81990;BME280;71485;51.638;-0.182;2023-11-22T10:58:04;101975.84;;;19.68;36.16
81990;BME280;71485;51.638;-0.182;2023-11-22T11:00:29;101965.54;;;19.72;36.06
81990;BME280;71485;51.638;-0.182;2023-11-22T11:02:59;101958.79;;;19.82;36.00
81990;BME280;71485;51.638;-0.182;2023-11-22T11:05:21;101958.35;;;19.83;35.93
81990;BME280;71485;51.638;-0.182;2023-11-22T11:07:48;101961.78;;;19.63;35.79
81990;BME280;71485;51.638;-0.182;2023-11-22T11:10:11;101984.54;;;19.95;35.73
81990;BME280;71485;51.638;-0.182;2023-11-22T11:12:37;101998.36;;;19.45;35.74
81990;BME280;71485;51.638;-0.182;2023-11-22T11:15:03;101998.68;;;19.98;35.75
81990;BME280;71485;51.638;-0.182;2023-11-22T11:17:29;101989.22;;;19.95;35.68
81990;BME280;71485;51.638;-0.182;2023-11-22T11:19:52;101988.10;;;19.69;35.70
81990;BME280;71485;51.638;-0.182;2023-11-22T11:22:18;101986.45;;;19.67;35.72
81990;BME280;71485;51.638;-0.182;2023-11-22T11:24:47;101978.29;;;19.97;35.65
81990;BME280;71485;51.638;-0.182;2023-11-22T11:27:10;101976.55;;;20.02;35.47
81990;BME280;71485;51.638;-0.182;2023-11-22T11:29:36;101972.14;;;19.80;35.44
81990;BME280;71485;51.638;-0.182;2023-11-22T11:32:02;101959.65;;;20.07;35.44
81990;BME280;71485;51.638;-0.182;2023-11-22T11:34:26;101945.05;;;20.07;35.42
81990;BME280;71485;51.638;-0.182;2023-11-22T11:36:53;101941.50;;;19.87;35.35
81990;BME280;71485;51.638;-0.182;2023-11-22T11:39:25;101935.78;;;20.08;35.35
81990;BME280;71485;51.638;-0.182;2023-11-22T11:41:43;101937.74;;;19.87;35.30
81990;BME280;71485;51.638;-0.182;2023-11-22T11:44:10;101938.87;;;20.08;35.28
81990;BME280;71485;51.638;-0.182;2023-11-22T11:46:36;101931.46;;;19.81;35.28
81990;BME280;71485;51.638;-0.182;2023-11-22T11:49:00;101920.75;;;20.07;35.25
81990;BME280;71485;51.638;-0.182;2023-11-22T11:51:29;101911.22;;;20.10;35.17
81990;BME280;71485;51.638;-0.182;2023-11-22T11:53:53;101900.72;;;19.86;35.13
81990;BME280;71485;51.638;-0.182;2023-11-22T11:56:18;101883.87;;;20.10;35.13
81990;BME280;71485;51.638;-0.182;2023-11-22T11:58:43;101865.22;;;19.85;35.04
81990;BME280;71485;51.638;-0.182;2023-11-22T12:01:11;101853.88;;;20.05;35.10
81990;BME280;71485;51.638;-0.182;2023-11-22T12:03:35;101840.06;;;20.03;35.11
81990;BME280;71485;51.638;-0.182;2023-11-22T12:05:59;101847.65;;;20.03;35.11
81990;BME280;71485;51.638;-0.182;2023-11-22T12:08:25;101856.16;;;20.01;35.05
81990;BME280;71485;51.638;-0.182;2023-11-22T12:10:51;101840.76;;;20.07;34.85
81990;BME280;71485;51.638;-0.182;2023-11-22T12:13:17;101847.43;;;20.04;34.97
81990;BME280;71485;51.638;-0.182;2023-11-22T12:15:42;101843.83;;;20.07;34.86
81990;BME280;71485;51.638;-0.182;2023-11-22T12:18:08;101851.51;;;20.07;35.01
81990;BME280;71485;51.638;-0.182;2023-11-22T12:20:33;101866.33;;;19.97;35.02
81990;BME280;71485;51.638;-0.182;2023-11-22T12:22:59;101877.19;;;19.82;34.88
81990;BME280;71485;51.638;-0.182;2023-11-22T12:25:32;101887.27;;;20.08;34.83
81990;BME280;71485;51.638;-0.182;2023-11-22T12:27:54;101902.45;;;19.75;35.00
81990;BME280;71485;51.638;-0.182;2023-11-22T12:30:28;101903.46;;;20.03;34.89